Time;durP1;ratioP1;P1;durP2;ratioP2;P2;SDS_P1;SDS_P2;PMS_P1;PMS_P2;Temp;Humidity;BMP_temperature;BMP_pressure;BME280_temperature;BME280_humidity;BME280_pressure;Samples;Min_cycle;Max_cycle;Signal;HPM_P1;HPM_P2
2023/07/18 00:00:20;;;;;;;4.30;3.65;;;;;;;;;;10336408;28;20064;-64
2023/07/18 00:05:18;;;;;;;7.25;3.90;;;;;;;;;;10329653;28;20072;-65
2023/07/18 00:10:19;;;;;;;4.22;3.78;;;;;;;;;;10335442;28;20517;-65
2023/07/18 00:15:18;;;;;;;4.50;3.33;;;;;;;;;;10336743;28;20086;-65
2023/07/18 00:20:18;;;;;;;5.40;3.28;;;;;;;;;;10337428;28;20067;-64
2023/07/18 00:25:19;;;;;;;4.25;3.25;;;;;;;;;;10337544;28;20063;-64
2023/07/18 00:30:19;;;;;;;9.48;3.60;;;;;;;;;;10333797;28;20056;-63
2023/07/18 00:35:17;;;;;;;5.85;4.15;;;;;;;;;;10334462;28;20074;-64
2023/07/18 00:40:17;;;;;;;3.95;3.40;;;;;;;;;;10335298;28;20094;-64
2023/07/18 00:45:15;;;;;;;3.97;3.58;;;;;;;;;;10330857;28;20457;-63
2023/07/18 00:50:16;;;;;;;8.50;3.60;;;;;;;;;;10334158;28;20076;-63
2023/07/18 00:55:14;;;;;;;7.28;3.92;;;;;;;;;;10311156;28;20080;-62
2023/07/18 01:00:14;;;;;;;8.15;3.65;;;;;;;;;;10333424;28;20118;-63
2023/07/18 01:05:17;;;;;;;4.10;3.17;;;;;;;;;;10328745;28;20472;-63
2023/07/18 01:10:16;;;;;;;6.95;3.53;;;;;;;;;;10333685;28;20068;-63
2023/07/18 01:15:14;;;;;;;7.57;3.38;;;;;;;;;;10313571;28;20476;-62
2023/07/18 01:20:16;;;;;;;8.18;3.45;;;;;;;;;;10308303;28;20068;-63
2023/07/18 01:25:17;;;;;;;4.18;3.78;;;;;;;;;;10317852;28;20076;-62
2023/07/18 01:30:18;;;;;;;4.63;3.55;;;;;;;;;;10326314;28;20072;-64
2023/07/18 01:35:19;;;;;;;7.10;3.70;;;;;;;;;;10331277;28;20068;-63
2023/07/18 01:40:20;;;;;;;5.13;3.78;;;;;;;;;;10333892;28;20064;-64
2023/07/18 01:45:21;;;;;;;6.22;3.72;;;;;;;;;;10333037;28;20066;-65
2023/07/18 01:50:20;;;;;;;6.68;3.83;;;;;;;;;;10311678;28;20071;-65
2023/07/18 01:55:20;;;;;;;4.35;3.95;;;;;;;;;;10327927;28;20083;-62
2023/07/18 02:00:19;;;;;;;6.10;3.40;;;;;;;;;;10328452;28;20292;-64
2023/07/18 02:05:20;;;;;;;5.38;3.70;;;;;;;;;;10331892;28;20087;-64
2023/07/18 02:10:21;;;;;;;4.57;3.60;;;;;;;;;;10324602;28;20078;-64
2023/07/18 02:15:21;;;;;;;3.95;3.45;;;;;;;;;;10324997;28;20139;-64
2023/07/18 02:20:24;;;;;;;9.10;3.75;;;;;;;;;;10335376;28;20488;-64
2023/07/18 02:25:24;;;;;;;8.10;3.70;;;;;;;;;;10315570;28;20075;-64
2023/07/18 02:30:22;;;;;;;4.75;3.33;;;;;;;;;;10336611;28;20063;-64
2023/07/18 02:35:21;;;;;;;6.82;3.50;;;;;;;;;;10339121;28;20075;-63
2023/07/18 02:40:20;;;;;;;4.53;3.80;;;;;;;;;;10336867;28;20064;-63
2023/07/18 02:45:19;;;;;;;5.45;3.50;;;;;;;;;;10328179;28;20032;-64
2023/07/18 02:50:18;;;;;;;4.78;3.58;;;;;;;;;;10317869;28;20083;-64
2023/07/18 02:55:16;;;;;;;6.05;3.50;;;;;;;;;;10325903;28;20075;-65
2023/07/18 03:00:20;;;;;;;7.53;4.00;;;;;;;;;;10326725;28;20072;-63
2023/07/18 03:05:22;;;;;;;7.20;3.67;;;;;;;;;;10318104;28;20081;-63
2023/07/18 03:10:20;;;;;;;4.32;3.22;;;;;;;;;;10329735;28;20068;-63
2023/07/18 03:15:20;;;;;;;8.00;4.25;;;;;;;;;;10324096;28;20075;-65
2023/07/18 03:20:20;;;;;;;4.00;3.60;;;;;;;;;;10339181;28;20066;-65
2023/07/18 03:25:20;;;;;;;6.50;3.50;;;;;;;;;;10339031;28;20128;-63
2023/07/18 03:30:19;;;;;;;8.70;3.85;;;;;;;;;;10337203;28;20157;-62
2023/07/18 03:35:18;;;;;;;6.95;4.28;;;;;;;;;;10335478;28;20078;-63
2023/07/18 03:40:17;;;;;;;6.95;3.92;;;;;;;;;;10336208;28;20066;-64
2023/07/18 03:45:16;;;;;;;8.75;4.68;;;;;;;;;;10316859;28;20080;-64
2023/07/18 03:50:16;;;;;;;5.57;4.25;;;;;;;;;;10336522;28;20614;-64
2023/07/18 03:55:14;;;;;;;5.22;4.05;;;;;;;;;;10334023;28;20517;-64
2023/07/18 04:00:17;;;;;;;5.88;3.92;;;;;;;;;;10335019;28;20067;-64
2023/07/18 04:05:16;;;;;;;;;;;;;;;;;;10336155;28;20072;-64
2023/07/18 04:10:14;;;;;;;5.82;4.25;;;;;;;;;;10316526;28;19967;-64
2023/07/18 04:15:14;;;;;;;4.72;4.25;;;;;;;;;;10325864;28;20076;-63
2023/07/18 04:20:14;;;;;;;8.85;4.45;;;;;;;;;;10336628;28;20150;-65
2023/07/18 04:25:12;;;;;;;5.75;5.15;;;;;;;;;;10336935;28;20067;-63
2023/07/18 04:30:10;;;;;;;6.43;4.60;;;;;;;;;;10339311;28;20076;-63
2023/07/18 04:35:10;;;;;;;7.45;4.18;;;;;;;;;;10335924;28;20472;-63
2023/07/18 04:40:10;;;;;;;5.22;4.78;;;;;;;;;;10333243;28;20064;-64
2023/07/18 04:45:08;;;;;;;11.93;5.82;;;;;;;;;;10335926;28;20454;-64
2023/07/18 04:50:10;;;;;;;9.70;5.72;;;;;;;;;;10333699;28;20087;-64
2023/07/18 04:55:11;;;;;;;6.43;5.47;;;;;;;;;;10341557;28;20072;-63
2023/07/18 05:00:10;;;;;;;13.25;6.55;;;;;;;;;;10334772;28;20817;-64
2023/07/18 05:05:08;;;;;;;12.10;10.85;;;;;;;;;;10322849;28;20061;-63
2023/07/18 05:10:07;;;;;;;8.77;6.50;;;;;;;;;;10329420;28;20064;-63
2023/07/18 05:15:08;;;;;;;12.13;7.45;;;;;;;;;;10330387;28;20071;-64
2023/07/18 05:20:10;;;;;;;8.68;6.03;;;;;;;;;;10336967;28;20515;-62
2023/07/18 05:25:09;;;;;;;7.40;6.22;;;;;;;;;;10333073;28;20079;-63
2023/07/18 05:30:13;;;;;;;9.07;6.78;;;;;;;;;;10331171;28;20075;-64
2023/07/18 05:35:13;;;;;;;;;;;;;;;;;;10327862;28;20206;-64
2023/07/18 05:40:12;;;;;;;12.57;9.27;;;;;;;;;;10332539;28;20363;-63
2023/07/18 05:45:12;;;;;;;10.48;9.23;;;;;;;;;;10336987;28;20067;-64
2023/07/18 05:50:10;;;;;;;19.40;10.52;;;;;;;;;;10336503;28;20080;-64
2023/07/18 05:55:09;;;;;;;14.85;10.10;;;;;;;;;;10337404;28;20524;-62
2023/07/18 06:00:10;;;;;;;13.02;10.38;;;;;;;;;;10338116;28;20075;-62
2023/07/18 06:05:12;;;;;;;17.98;13.40;;;;;;;;;;10336921;28;20656;-63
2023/07/18 06:10:12;;;;;;;18.02;15.52;;;;;;;;;;10336883;28;20082;-64
2023/07/18 06:15:14;;;;;;;12.88;11.55;;;;;;;;;;10336397;28;20083;-64
2023/07/18 06:20:16;;;;;;;18.45;10.68;;;;;;;;;;10335416;28;20072;-64
2023/07/18 06:25:17;;;;;;;13.38;11.10;;;;;;;;;;10338643;28;20087;-63
2023/07/18 06:30:15;;;;;;;12.38;11.18;;;;;;;;;;10337819;28;20067;-63
2023/07/18 06:35:13;;;;;;;13.75;11.07;;;;;;;;;;10334524;28;20474;-63
2023/07/18 06:40:22;;;;;;;12.95;11.43;;;;;;;;;;10329122;28;20067;-64
2023/07/18 06:45:20;;;;;;;15.00;12.07;;;;;;;;;;10334205;28;20781;-63
2023/07/18 06:50:18;;;;;;;15.38;13.85;;;;;;;;;;10332913;28;20079;-62
2023/07/18 06:55:17;;;;;;;35.80;32.00;;;;;;;;;;10330081;28;20072;-63
2023/07/18 07:00:19;;;;;;;15.20;13.68;;;;;;;;;;10329450;28;20087;-63
2023/07/18 07:05:18;;;;;;;17.02;13.13;;;;;;;;;;10330372;28;20064;-64
2023/07/18 07:10:16;;;;;;;21.88;19.48;;;;;;;;;;10327870;28;20079;-63
2023/07/18 07:15:14;;;;;;;15.48;13.60;;;;;;;;;;10329703;28;20070;-63
2023/07/18 07:20:14;;;;;;;17.25;15.35;;;;;;;;;;10330047;28;20076;-62
2023/07/18 07:25:13;;;;;;;18.33;16.60;;;;;;;;;;10334748;28;20072;-63
2023/07/18 07:30:15;;;;;;;19.23;13.15;;;;;;;;;;10331627;28;20075;-63
2023/07/18 07:35:16;;;;;;;14.13;12.75;;;;;;;;;;10332828;28;20067;-64
2023/07/18 07:40:15;;;;;;;15.95;14.32;;;;;;;;;;10332882;28;20064;-64
2023/07/18 07:45:14;;;;;;;15.32;13.73;;;;;;;;;;10333113;28;20080;-63
2023/07/18 07:50:13;;;;;;;14.65;13.25;;;;;;;;;;10332432;28;20523;-64
2023/07/18 07:55:13;;;;;;;13.63;12.05;;;;;;;;;;10328177;28;20067;-64
2023/07/18 08:00:12;;;;;;;16.05;13.40;;;;;;;;;;10330601;28;20082;-63
2023/07/18 08:05:10;;;;;;;21.15;19.35;;;;;;;;;;10330556;28;20084;-64
2023/07/18 08:10:09;;;;;;;16.15;14.10;;;;;;;;;;10330189;28;20063;-63
2023/07/18 08:15:09;;;;;;;18.92;13.35;;;;;;;;;;10321300;28;20080;-64
2023/07/18 08:20:10;;;;;;;19.58;13.05;;;;;;;;;;10327349;28;20285;-63
2023/07/18 08:25:09;;;;;;;17.00;12.32;;;;;;;;;;10331391;28;20588;-63
2023/07/18 08:30:09;;;;;;;17.05;13.52;;;;;;;;;;10329951;28;20083;-64
2023/07/18 08:35:08;;;;;;;14.40;12.02;;;;;;;;;;10327273;28;20087;-63
2023/07/18 08:40:09;;;;;;;32.25;13.23;;;;;;;;;;10325869;28;20068;-64
2023/07/18 08:45:10;;;;;;;17.17;12.30;;;;;;;;;;10327791;28;20072;-64
2023/07/18 08:50:10;;;;;;;12.15;10.88;;;;;;;;;;10329096;28;20083;-64
2023/07/18 08:55:10;;;;;;;17.50;15.93;;;;;;;;;;10326195;28;20568;-64
2023/07/18 09:00:11;;;;;;;19.13;11.45;;;;;;;;;;10331089;28;20094;-63
2023/07/18 09:05:24;;;;;;;14.40;11.63;;;;;;;;;;10326636;28;20079;-63
2023/07/18 09:10:22;;;;;;;12.20;11.05;;;;;;;;;;10325137;28;20068;-63
2023/07/18 09:15:22;;;;;;;14.85;11.52;;;;;;;;;;10328527;28;20095;-63
2023/07/18 09:20:22;;;;;;;13.75;10.38;;;;;;;;;;10331081;28;20080;-63
2023/07/18 09:25:20;;;;;;;11.82;10.27;;;;;;;;;;10331871;28;20079;-64
2023/07/18 09:30:21;;;;;;;15.05;11.68;;;;;;;;;;10330619;28;20079;-64
2023/07/18 09:35:21;;;;;;;18.45;11.15;;;;;;;;;;10331064;28;20076;-64
2023/07/18 09:40:19;;;;;;;14.45;10.55;;;;;;;;;;10326969;28;20503;-64
2023/07/18 09:45:17;;;;;;;13.60;9.70;;;;;;;;;;10328469;28;20068;-63
2023/07/18 09:50:16;;;;;;;13.63;11.27;;;;;;;;;;10308720;28;20478;-63
2023/07/18 09:55:15;;;;;;;12.43;10.48;;;;;;;;;;10314625;28;20076;-63
2023/07/18 10:00:16;;;;;;;11.00;8.25;;;;;;;;;;10328120;28;20491;-61
2023/07/18 10:05:17;;;;;;;9.55;8.55;;;;;;;;;;10317899;28;20068;-64
2023/07/18 10:10:16;;;;;;;9.45;8.52;;;;;;;;;;10328877;28;20071;-64
2023/07/18 10:15:15;;;;;;;9.80;9.00;;;;;;;;;;10327387;28;20087;-64
2023/07/18 10:20:14;;;;;;;9.80;8.57;;;;;;;;;;10326198;28;20068;-64
2023/07/18 10:25:12;;;;;;;7.63;6.72;;;;;;;;;;10325480;28;20094;-63
2023/07/18 10:30:15;;;;;;;9.20;8.32;;;;;;;;;;10334853;28;20079;-64
2023/07/18 10:35:18;;;;;;;10.35;6.85;;;;;;;;;;10336453;28;20080;-63
2023/07/18 10:40:33;;;;;;;11.18;7.32;;;;;;;;;;10335982;28;20064;-63
2023/07/18 10:45:36;;;;;;;7.13;6.43;;;;;;;;;;10337224;28;20086;-63
2023/07/18 10:50:34;;;;;;;14.90;6.90;;;;;;;;;;10335608;28;20064;-63
2023/07/18 10:55:33;;;;;;;8.32;6.25;;;;;;;;;;10337222;28;20509;-63
2023/07/18 11:00:31;;;;;;;11.32;6.63;;;;;;;;;;10326252;28;20536;-63
2023/07/18 11:05:30;;;;;;;7.43;5.78;;;;;;;;;;10337572;28;20520;-64
2023/07/18 11:10:33;;;;;;;12.27;5.95;;;;;;;;;;10338380;28;20076;-64
2023/07/18 11:15:31;;;;;;;9.75;6.97;;;;;;;;;;10335855;28;20079;-63
2023/07/18 11:20:31;;;;;;;8.18;5.57;;;;;;;;;;10333717;28;20059;-63
2023/07/18 11:25:30;;;;;;;8.75;6.22;;;;;;;;;;10332769;28;20330;-62
2023/07/18 11:30:28;;;;;;;9.45;6.63;;;;;;;;;;10334154;28;20068;-63
2023/07/18 11:35:26;;;;;;;7.00;6.07;;;;;;;;;;10336464;28;20072;-63
2023/07/18 11:40:26;;;;;;;7.28;5.85;;;;;;;;;;10333097;28;20087;-64
2023/07/18 11:45:25;;;;;;;8.00;6.45;;;;;;;;;;10333354;28;20121;-64
2023/07/18 11:50:27;;;;;;;7.55;5.60;;;;;;;;;;10333953;28;20083;-64
2023/07/18 11:55:28;;;;;;;7.20;5.68;;;;;;;;;;10333291;28;20094;-63
2023/07/18 12:00:27;;;;;;;10.85;5.90;;;;;;;;;;10333582;28;20083;-64
2023/07/18 12:05:25;;;;;;;10.40;5.80;;;;;;;;;;10333970;28;20078;-64
2023/07/18 12:10:23;;;;;;;7.18;6.05;;;;;;;;;;10327832;28;20079;-64
2023/07/18 12:15:25;;;;;;;11.57;7.22;;;;;;;;;;10333462;28;20068;-63
2023/07/18 12:20:25;;;;;;;7.75;7.03;;;;;;;;;;10332157;28;20083;-64
2023/07/18 12:25:24;;;;;;;7.68;6.47;;;;;;;;;;10336021;28;20075;-64
2023/07/18 12:30:22;;;;;;;12.30;6.95;;;;;;;;;;10330091;28;20068;-64
2023/07/18 12:35:22;;;;;;;8.10;6.63;;;;;;;;;;10328434;28;20064;-64
2023/07/18 12:40:20;;;;;;;9.88;6.63;;;;;;;;;;10329398;28;20592;-64
2023/07/18 12:45:19;;;;;;;7.82;6.35;;;;;;;;;;10330336;28;20113;-63
2023/07/18 12:50:19;;;;;;;7.63;6.70;;;;;;;;;;10331769;28;20074;-63
2023/07/18 12:55:22;;;;;;;9.60;6.20;;;;;;;;;;10330911;28;20114;-64
2023/07/18 13:00:20;;;;;;;10.93;6.35;;;;;;;;;;10331177;28;20079;-64
2023/07/18 13:05:18;;;;;;;7.18;6.00;;;;;;;;;;10331180;28;20102;-64
2023/07/18 13:10:16;;;;;;;8.13;5.72;;;;;;;;;;10331200;28;20194;-64
2023/07/18 13:15:16;;;;;;;9.85;5.00;;;;;;;;;;10328776;28;20072;-64
2023/07/18 13:20:18;;;;;;;11.98;6.20;;;;;;;;;;10330195;28;20072;-64
2023/07/18 13:25:16;;;;;;;9.52;6.30;;;;;;;;;;10330836;28;20123;-65
2023/07/18 13:30:16;;;;;;;10.02;4.90;;;;;;;;;;10330287;28;20071;-64
2023/07/18 13:35:16;;;;;;;7.80;6.27;;;;;;;;;;10330652;28;20068;-64
2023/07/18 13:40:14;;;;;;;9.25;4.82;;;;;;;;;;10331495;28;20074;-65
2023/07/18 13:45:12;;;;;;;8.88;4.72;;;;;;;;;;10329107;28;20531;-65
2023/07/18 13:50:15;;;;;;;12.77;7.30;;;;;;;;;;10330475;28;20088;-65
2023/07/18 13:55:28;;;;;;;10.25;5.78;;;;;;;;;;10329909;28;20063;-65
2023/07/18 14:00:26;;;;;;;8.32;5.30;;;;;;;;;;10328258;28;20067;-65
2023/07/18 14:05:26;;;;;;;10.38;5.45;;;;;;;;;;10337252;28;20087;-65
2023/07/18 14:10:26;;;;;;;11.27;4.40;;;;;;;;;;10338265;28;20453;-64
2023/07/18 14:15:42;;;;;;;8.45;4.93;;;;;;;;;;10345118;28;20072;-63
2023/07/18 14:20:42;;;;;;;15.45;6.60;;;;;;;;;;10349409;28;20177;-64
2023/07/18 14:25:40;;;;;;;6.63;5.43;;;;;;;;;;10333702;28;20100;-64
2023/07/18 14:30:38;;;;;;;10.00;5.60;;;;;;;;;;10333953;28;20056;-64
2023/07/18 14:35:37;;;;;;;14.32;5.22;;;;;;;;;;10332180;28;20076;-64
2023/07/18 14:40:36;;;;;;;7.78;5.32;;;;;;;;;;10336602;28;20076;-65
2023/07/18 14:45:35;;;;;;;8.93;5.45;;;;;;;;;;10333870;28;20527;-64
2023/07/18 14:50:33;;;;;;;7.53;5.70;;;;;;;;;;10336632;28;20079;-65
2023/07/18 14:55:31;;;;;;;8.57;6.80;;;;;;;;;;10335731;28;20075;-64
2023/07/18 15:00:33;;;;;;;16.58;7.50;;;;;;;;;;10335978;28;20076;-64
2023/07/18 15:05:31;;;;;;;11.50;6.85;;;;;;;;;;10335198;28;20068;-64
2023/07/18 15:10:30;;;;;;;6.75;6.15;;;;;;;;;;10338373;28;20064;-64
2023/07/18 15:15:28;;;;;;;8.18;6.10;;;;;;;;;;10330437;28;20091;-64
2023/07/18 15:20:27;;;;;;;7.28;5.05;;;;;;;;;;10334910;28;20476;-65
2023/07/18 15:25:26;;;;;;;9.32;4.95;;;;;;;;;;10334559;28;20084;-64
2023/07/18 15:30:24;;;;;;;14.30;4.30;;;;;;;;;;10333805;28;20075;-64
2023/07/18 15:35:22;;;;;;;4.65;4.25;;;;;;;;;;10335834;28;20086;-64
2023/07/18 15:40:22;;;;;;;6.50;4.32;;;;;;;;;;10330541;28;20074;-65
2023/07/18 15:45:20;;;;;;;12.30;5.82;;;;;;;;;;10332834;28;20060;-64
2023/07/18 15:50:21;;;;;;;10.05;4.40;;;;;;;;;;10335108;28;20075;-64
2023/07/18 15:55:19;;;;;;;7.43;4.65;;;;;;;;;;10336004;28;20463;-65
2023/07/18 16:00:19;;;;;;;6.45;4.78;;;;;;;;;;10333029;28;20084;-63
2023/07/18 16:05:18;;;;;;;7.32;4.45;;;;;;;;;;10331758;28;20079;-64
2023/07/18 16:10:16;;;;;;;4.88;4.38;;;;;;;;;;10334393;28;20071;-64
2023/07/18 16:15:14;;;;;;;4.15;3.75;;;;;;;;;;10339916;28;20522;-63
2023/07/18 16:20:14;;;;;;;5.75;4.70;;;;;;;;;;10329145;28;20075;-63
2023/07/18 16:25:12;;;;;;;9.75;4.50;;;;;;;;;;10329322;28;20472;-63
2023/07/18 16:30:11;;;;;;;7.13;5.35;;;;;;;;;;10327697;28;20072;-63
2023/07/18 16:35:10;;;;;;;9.93;4.30;;;;;;;;;;10337279;28;20493;-63
2023/07/18 16:40:10;;;;;;;8.95;4.13;;;;;;;;;;10328111;28;20068;-63
2023/07/18 16:45:08;;;;;;;5.82;5.22;;;;;;;;;;10332232;28;20075;-64
2023/07/18 16:50:07;;;;;;;5.75;5.13;;;;;;;;;;10339362;28;20080;-65
2023/07/18 16:55:06;;;;;;;7.30;4.43;;;;;;;;;;10333040;28;20082;-63
2023/07/18 17:00:06;;;;;;;7.03;4.43;;;;;;;;;;10322631;28;20079;-64
2023/07/18 17:05:04;;;;;;;9.65;6.50;;;;;;;;;;10327365;28;20064;-64
2023/07/18 17:10:04;;;;;;;5.32;4.53;;;;;;;;;;10321145;28;20067;-65
2023/07/18 17:15:02;;;;;;;9.77;4.57;;;;;;;;;;10326739;28;20064;-65
2023/07/18 17:20:02;;;;;;;6.40;5.30;;;;;;;;;;10335484;28;20596;-65
2023/07/18 17:25:06;;;;;;;9.98;4.90;;;;;;;;;;10329646;28;20134;-65
2023/07/18 17:30:05;;;;;;;5.57;5.00;;;;;;;;;;10335363;28;20067;-64
2023/07/18 17:35:05;;;;;;;6.80;4.60;;;;;;;;;;10328209;28;20509;-65
2023/07/18 17:40:04;;;;;;;11.32;4.97;;;;;;;;;;10326654;28;20509;-64
2023/07/18 17:45:03;;;;;;;6.43;5.43;;;;;;;;;;10325748;28;20075;-65
2023/07/18 17:50:03;;;;;;;9.05;4.75;;;;;;;;;;10282663;28;1257662;-65
2023/07/18 17:55:02;;;;;;;6.85;4.80;;;;;;;;;;10326829;28;20178;-65
2023/07/18 18:00:04;;;;;;;6.38;4.25;;;;;;;;;;10305566;28;20068;-64
2023/07/18 18:05:22;;;;;;;7.70;4.53;;;;;;;;;;10322126;28;20067;-65
2023/07/18 18:10:22;;;;;;;5.88;4.95;;;;;;;;;;10327068;28;20079;-65
2023/07/18 18:15:20;;;;;;;10.52;5.38;;;;;;;;;;10334720;28;20071;-65
2023/07/18 18:20:19;;;;;;;7.63;4.28;;;;;;;;;;10328048;28;20079;-65
2023/07/18 18:25:18;;;;;;;6.75;3.97;;;;;;;;;;10324241;28;20442;-65
2023/07/18 18:30:17;;;;;;;7.78;5.68;;;;;;;;;;10328857;28;20551;-65
2023/07/18 18:35:16;;;;;;;9.85;4.97;;;;;;;;;;10332516;28;20068;-63
2023/07/18 18:40:15;;;;;;;5.55;3.90;;;;;;;;;;10327536;28;20083;-65
2023/07/18 18:45:13;;;;;;;4.50;3.67;;;;;;;;;;10327826;28;20101;-65
2023/07/18 18:50:16;;;;;;;11.07;5.05;;;;;;;;;;10331230;28;20142;-65
2023/07/18 18:55:17;;;;;;;11.32;6.38;;;;;;;;;;10333212;28;20094;-65
2023/07/18 19:00:21;;;;;;;17.40;7.30;;;;;;;;;;10335374;28;20078;-64
2023/07/18 19:05:21;;;;;;;12.82;6.63;;;;;;;;;;10340787;28;20091;-65
2023/07/18 19:10:21;;;;;;;48.08;6.82;;;;;;;;;;10334902;28;20060;-65
2023/07/18 19:15:20;;;;;;;5.50;4.43;;;;;;;;;;10336739;28;21333;-65
2023/07/18 19:20:18;;;;;;;6.75;4.80;;;;;;;;;;10330472;28;20074;-65
2023/07/18 19:25:19;;;;;;;10.85;4.47;;;;;;;;;;10330693;28;20142;-65
2023/07/18 19:30:18;;;;;;;12.68;5.30;;;;;;;;;;10331472;28;20083;-65
2023/07/18 19:35:16;;;;;;;11.27;5.50;;;;;;;;;;10338963;28;20551;-65
2023/07/18 19:40:15;;;;;;;16.27;7.00;;;;;;;;;;10340897;28;20060;-66
2023/07/18 19:45:15;;;;;;;15.63;5.90;;;;;;;;;;10330104;28;20613;-66
2023/07/18 19:50:13;;;;;;;7.72;4.93;;;;;;;;;;10325840;28;20126;-65
2023/07/18 19:55:11;;;;;;;10.80;5.55;;;;;;;;;;10324636;28;20098;-65
2023/07/18 20:00:10;;;;;;;8.85;4.57;;;;;;;;;;10326826;28;20083;-65
2023/07/18 20:05:10;;;;;;;6.78;4.32;;;;;;;;;;10335478;28;20660;-65
2023/07/18 20:10:09;;;;;;;8.45;4.10;;;;;;;;;;10333082;28;20076;-65
2023/07/18 20:15:07;;;;;;;8.07;4.00;;;;;;;;;;10333573;28;20061;-65
2023/07/18 20:20:10;;;;;;;6.55;3.60;;;;;;;;;;10329289;28;20504;-65
2023/07/18 20:25:10;;;;;;;5.13;3.58;;;;;;;;;;10333438;28;20071;-64
2023/07/18 20:30:08;;;;;;;6.00;4.13;;;;;;;;;;10328843;28;20079;-64
2023/07/18 20:35:08;;;;;;;9.05;3.85;;;;;;;;;;10325839;28;20086;-65
2023/07/18 20:40:08;;;;;;;4.80;3.53;;;;;;;;;;10329750;28;20087;-66
2023/07/18 20:45:12;;;;;;;5.22;3.25;;;;;;;;;;10309962;28;20048;-66
2023/07/18 20:50:11;;;;;;;7.78;3.35;;;;;;;;;;10325370;28;20587;-66
2023/07/18 20:55:11;;;;;;;5.93;3.28;;;;;;;;;;10325875;28;20090;-66
2023/07/18 21:00:10;;;;;;;5.43;3.38;;;;;;;;;;10332097;28;20076;-65
2023/07/18 21:05:12;;;;;;;4.97;3.57;;;;;;;;;;10329154;28;20111;-65
2023/07/18 21:10:11;;;;;;;6.97;3.30;;;;;;;;;;10334252;28;20065;-65
2023/07/18 21:15:10;;;;;;;9.85;3.78;;;;;;;;;;10334822;28;20079;-65
2023/07/18 21:20:09;;;;;;;5.80;3.55;;;;;;;;;;10331624;28;20091;-63
2023/07/18 21:25:08;;;;;;;5.05;3.38;;;;;;;;;;10327634;28;20072;-64
2023/07/18 21:30:08;;;;;;;6.88;2.88;;;;;;;;;;10324035;28;20064;-64
2023/07/18 21:35:07;;;;;;;7.88;4.22;;;;;;;;;;10328676;28;20473;-64
2023/07/18 21:40:06;;;;;;;9.25;3.70;;;;;;;;;;10331102;28;20072;-65
2023/07/18 21:45:05;;;;;;;5.63;3.28;;;;;;;;;;10330326;28;20068;-65
2023/07/18 21:50:07;;;;;;;7.25;3.67;;;;;;;;;;10337732;28;20094;-64
2023/07/18 21:55:06;;;;;;;6.13;3.90;;;;;;;;;;10333614;28;20083;-64
2023/07/18 22:00:06;;;;;;;3.92;3.47;;;;;;;;;;10334863;28;20133;-64
2023/07/18 22:05:11;;;;;;;3.83;3.30;;;;;;;;;;10344271;28;20096;-63
2023/07/18 22:10:10;;;;;;;4.78;3.50;;;;;;;;;;10330679;28;20072;-64
2023/07/18 22:15:08;;;;;;;3.97;3.30;;;;;;;;;;10334103;28;20072;-64
2023/07/18 22:20:07;;;;;;;4.60;3.08;;;;;;;;;;10332343;28;20511;-65
2023/07/18 22:25:08;;;;;;;9.18;3.30;;;;;;;;;;10325423;28;20072;-64
2023/07/18 22:30:07;;;;;;;6.80;3.58;;;;;;;;;;10326764;28;20078;-64
2023/07/18 22:35:05;;;;;;;5.60;3.08;;;;;;;;;;10326059;28;20521;-64
2023/07/18 22:40:04;;;;;;;4.85;3.80;;;;;;;;;;10334313;28;20082;-64
2023/07/18 22:45:04;;;;;;;5.30;3.33;;;;;;;;;;10333324;28;20497;-63
2023/07/18 22:50:03;;;;;;;4.00;3.55;;;;;;;;;;10316479;28;20076;-64
2023/07/18 22:55:01;;;;;;;4.88;3.58;;;;;;;;;;10290886;28;20068;-64
2023/07/18 22:59:59;;;;;;;7.50;3.53;;;;;;;;;;10286332;28;20442;-64
2023/07/18 23:04:59;;;;;;;3.83;3.42;;;;;;;;;;10278876;28;20076;-64
2023/07/18 23:09:57;;;;;;;8.57;4.22;;;;;;;;;;10293051;28;20075;-65
2023/07/18 23:14:55;;;;;;;8.13;4.00;;;;;;;;;;10294653;28;20072;-64
2023/07/18 23:19:53;;;;;;;9.30;5.15;;;;;;;;;;10294397;28;20064;-64
2023/07/18 23:24:53;;;;;;;9.70;4.35;;;;;;;;;;10293006;28;20094;-63
2023/07/18 23:29:51;;;;;;;8.32;4.90;;;;;;;;;;10291425;28;20075;-64
2023/07/18 23:34:50;;;;;;;8.52;4.60;;;;;;;;;;10294428;28;20076;-63
2023/07/18 23:39:48;;;;;;;4.93;4.53;;;;;;;;;;10283524;28;20479;-64
2023/07/18 23:44:48;;;;;;;8.23;4.22;;;;;;;;;;10293417;28;20076;-64
2023/07/18 23:49:46;;;;;;;7.28;4.53;;;;;;;;;;10317858;28;20085;-64
2023/07/18 23:54:45;;;;;;;14.52;4.40;;;;;;;;;;10332744;28;20064;-64
2023/07/18 23:59:43;;;;;;;6.60;3.88;;;;;;;;;;10315135;28;20075;-64
